sensor_id;sensor_type;location;lat;lon;timestamp;P1;durP1;ratioP1;P2;durP2;ratioP2
3405;SDS011;10008;48.682;9.016;2023-02-12T00:01:29;45.47;;;29.57;;
3405;SDS011;10008;48.682;9.016;2023-02-12T00:03:56;43.50;;;28.60;;
3405;SDS011;10008;48.682;9.016;2023-02-12T00:06:22;41.60;;;28.53;;
3405;SDS011;10008;48.682;9.016;2023-02-12T00:08:49;42.03;;;28.63;;
3405;SDS011;10008;48.682;9.016;2023-02-12T00:11:17;41.77;;;28.37;;
3405;SDS011;10008;48.682;9.016;2023-02-12T00:13:45;43.30;;;30.30;;
3405;SDS011;10008;48.682;9.016;2023-02-12T00:16:12;42.97;;;28.50;;
3405;SDS011;10008;48.682;9.016;2023-02-12T00:18:39;43.23;;;29.20;;
3405;SDS011;10008;48.682;9.016;2023-02-12T00:21:06;40.77;;;28.67;;
3405;SDS011;10008;48.682;9.016;2023-02-12T00:23:33;42.60;;;29.20;;
3405;SDS011;10008;48.682;9.016;2023-02-12T00:25:59;40.40;;;27.90;;
3405;SDS011;10008;48.682;9.016;2023-02-12T00:28:28;40.00;;;28.57;;
3405;SDS011;10008;48.682;9.016;2023-02-12T00:30:54;42.57;;;28.50;;
3405;SDS011;10008;48.682;9.016;2023-02-12T00:33:20;37.90;;;26.87;;
3405;SDS011;10008;48.682;9.016;2023-02-12T00:35:53;38.73;;;26.20;;
3405;SDS011;10008;48.682;9.016;2023-02-12T00:38:20;37.60;;;26.37;;
3405;SDS011;10008;48.682;9.016;2023-02-12T00:40:46;40.70;;;26.50;;
3405;SDS011;10008;48.682;9.016;2023-02-12T00:43:12;41.57;;;28.10;;
3405;SDS011;10008;48.682;9.016;2023-02-12T00:45:37;41.27;;;27.90;;
3405;SDS011;10008;48.682;9.016;2023-02-12T00:48:03;45.20;;;29.67;;
3405;SDS011;10008;48.682;9.016;2023-02-12T00:50:29;41.10;;;28.40;;
3405;SDS011;10008;48.682;9.016;2023-02-12T00:52:55;42.53;;;29.23;;
3405;SDS011;10008;48.682;9.016;2023-02-12T00:55:20;43.57;;;28.20;;
3405;SDS011;10008;48.682;9.016;2023-02-12T00:57:46;44.07;;;30.10;;
3405;SDS011;10008;48.682;9.016;2023-02-12T01:00:12;48.80;;;32.37;;
3405;SDS011;10008;48.682;9.016;2023-02-12T01:02:40;50.10;;;32.57;;
3405;SDS011;10008;48.682;9.016;2023-02-12T01:05:06;41.33;;;28.07;;
3405;SDS011;10008;48.682;9.016;2023-02-12T01:07:32;42.23;;;27.90;;
3405;SDS011;10008;48.682;9.016;2023-02-12T01:09:58;43.70;;;29.10;;
3405;SDS011;10008;48.682;9.016;2023-02-12T01:12:24;44.57;;;29.57;;
3405;SDS011;10008;48.682;9.016;2023-02-12T01:14:51;43.00;;;28.90;;
3405;SDS011;10008;48.682;9.016;2023-02-12T01:17:16;41.07;;;27.37;;
3405;SDS011;10008;48.682;9.016;2023-02-12T01:19:42;42.93;;;28.67;;
3405;SDS011;10008;48.682;9.016;2023-02-12T01:22:08;50.73;;;30.17;;
3405;SDS011;10008;48.682;9.016;2023-02-12T01:24:34;41.90;;;29.57;;
3405;SDS011;10008;48.682;9.016;2023-02-12T01:27:00;48.33;;;30.60;;
3405;SDS011;10008;48.682;9.016;2023-02-12T01:29:27;48.97;;;31.63;;
3405;SDS011;10008;48.682;9.016;2023-02-12T01:31:52;47.97;;;31.30;;
3405;SDS011;10008;48.682;9.016;2023-02-12T01:34:18;46.00;;;31.20;;
3405;SDS011;10008;48.682;9.016;2023-02-12T01:36:44;45.73;;;28.57;;
3405;SDS011;10008;48.682;9.016;2023-02-12T01:39:10;45.87;;;30.47;;
3405;SDS011;10008;48.682;9.016;2023-02-12T01:41:38;50.03;;;31.77;;
3405;SDS011;10008;48.682;9.016;2023-02-12T01:44:19;44.50;;;29.70;;
3405;SDS011;10008;48.682;9.016;2023-02-12T01:46:47;46.23;;;30.60;;
3405;SDS011;10008;48.682;9.016;2023-02-12T01:52:03;41.53;;;27.90;;
3405;SDS011;10008;48.682;9.016;2023-02-12T01:54:37;46.47;;;30.00;;
3405;SDS011;10008;48.682;9.016;2023-02-12T01:57:04;46.67;;;30.00;;
3405;SDS011;10008;48.682;9.016;2023-02-12T01:59:32;47.33;;;30.40;;
3405;SDS011;10008;48.682;9.016;2023-02-12T02:01:59;50.57;;;31.57;;
3405;SDS011;10008;48.682;9.016;2023-02-12T02:04:28;53.60;;;31.60;;
3405;SDS011;10008;48.682;9.016;2023-02-12T02:07:01;46.53;;;30.53;;
3405;SDS011;10008;48.682;9.016;2023-02-12T02:09:30;44.70;;;29.40;;
3405;SDS011;10008;48.682;9.016;2023-02-12T02:11:59;45.90;;;30.47;;
3405;SDS011;10008;48.682;9.016;2023-02-12T02:14:44;44.23;;;29.20;;
3405;SDS011;10008;48.682;9.016;2023-02-12T02:31:03;50.43;;;31.67;;
3405;SDS011;10008;48.682;9.016;2023-02-12T02:33:49;51.37;;;30.23;;
3405;SDS011;10008;48.682;9.016;2023-02-12T02:39:03;48.50;;;30.73;;
3405;SDS011;10008;48.682;9.016;2023-02-12T02:41:45;47.93;;;30.03;;
3405;SDS011;10008;48.682;9.016;2023-02-12T02:44:23;47.67;;;31.93;;
3405;SDS011;10008;48.682;9.016;2023-02-12T02:46:59;49.80;;;32.40;;
3405;SDS011;10008;48.682;9.016;2023-02-12T02:49:32;48.70;;;32.07;;
3405;SDS011;10008;48.682;9.016;2023-02-12T02:52:05;50.10;;;32.43;;
3405;SDS011;10008;48.682;9.016;2023-02-12T02:54:38;53.70;;;32.77;;
3405;SDS011;10008;48.682;9.016;2023-02-12T02:57:12;55.40;;;31.00;;
3405;SDS011;10008;48.682;9.016;2023-02-12T02:59:42;47.10;;;30.70;;
3405;SDS011;10008;48.682;9.016;2023-02-12T03:02:17;48.60;;;32.90;;
3405;SDS011;10008;48.682;9.016;2023-02-12T03:04:50;50.07;;;32.30;;
3405;SDS011;10008;48.682;9.016;2023-02-12T03:07:20;50.03;;;30.03;;
3405;SDS011;10008;48.682;9.016;2023-02-12T03:09:57;46.50;;;31.43;;
3405;SDS011;10008;48.682;9.016;2023-02-12T03:12:28;45.10;;;30.23;;
3405;SDS011;10008;48.682;9.016;2023-02-12T03:15:02;52.30;;;32.33;;
3405;SDS011;10008;48.682;9.016;2023-02-12T03:17:34;47.97;;;31.67;;
3405;SDS011;10008;48.682;9.016;2023-02-12T03:20:06;49.47;;;31.27;;
3405;SDS011;10008;48.682;9.016;2023-02-12T03:22:52;44.60;;;30.07;;
3405;SDS011;10008;48.682;9.016;2023-02-12T03:25:31;43.30;;;30.57;;
3405;SDS011;10008;48.682;9.016;2023-02-12T03:28:06;53.60;;;32.80;;
3405;SDS011;10008;48.682;9.016;2023-02-12T03:31:02;52.87;;;33.30;;
3405;SDS011;10008;48.682;9.016;2023-02-12T03:39:28;53.40;;;33.53;;
3405;SDS011;10008;48.682;9.016;2023-02-12T03:44:46;49.93;;;32.33;;
3405;SDS011;10008;48.682;9.016;2023-02-12T03:50:38;48.37;;;31.03;;
3405;SDS011;10008;48.682;9.016;2023-02-12T03:53:29;51.53;;;32.80;;
3405;SDS011;10008;48.682;9.016;2023-02-12T03:55:57;44.43;;;30.50;;
3405;SDS011;10008;48.682;9.016;2023-02-12T03:58:28;43.80;;;29.00;;
3405;SDS011;10008;48.682;9.016;2023-02-12T04:00:57;48.67;;;30.10;;
3405;SDS011;10008;48.682;9.016;2023-02-12T04:03:25;47.27;;;30.27;;
3405;SDS011;10008;48.682;9.016;2023-02-12T04:05:51;46.83;;;30.00;;
3405;SDS011;10008;48.682;9.016;2023-02-12T04:08:17;50.27;;;32.63;;
3405;SDS011;10008;48.682;9.016;2023-02-12T04:10:51;49.10;;;32.10;;
3405;SDS011;10008;48.682;9.016;2023-02-12T04:18:58;48.23;;;31.90;;
3405;SDS011;10008;48.682;9.016;2023-02-12T04:21:50;48.10;;;30.70;;
3405;SDS011;10008;48.682;9.016;2023-02-12T04:27:43;57.17;;;33.63;;
3405;SDS011;10008;48.682;9.016;2023-02-12T04:30:36;49.63;;;31.80;;
3405;SDS011;10008;48.682;9.016;2023-02-12T04:33:09;46.73;;;30.67;;
3405;SDS011;10008;48.682;9.016;2023-02-12T04:38:20;63.73;;;34.43;;
3405;SDS011;10008;48.682;9.016;2023-02-12T04:40:50;51.40;;;32.40;;
3405;SDS011;10008;48.682;9.016;2023-02-12T04:43:29;51.97;;;33.83;;
3405;SDS011;10008;48.682;9.016;2023-02-12T04:45:56;54.77;;;33.97;;
3405;SDS011;10008;48.682;9.016;2023-02-12T04:48:22;58.50;;;36.53;;
3405;SDS011;10008;48.682;9.016;2023-02-12T04:50:48;60.47;;;36.87;;
3405;SDS011;10008;48.682;9.016;2023-02-12T04:53:13;62.77;;;37.73;;
3405;SDS011;10008;48.682;9.016;2023-02-12T04:55:39;64.20;;;39.40;;
3405;SDS011;10008;48.682;9.016;2023-02-12T04:58:05;60.70;;;37.27;;
3405;SDS011;10008;48.682;9.016;2023-02-12T05:00:31;60.47;;;38.40;;
3405;SDS011;10008;48.682;9.016;2023-02-12T05:02:57;64.97;;;38.57;;
3405;SDS011;10008;48.682;9.016;2023-02-12T05:05:24;60.73;;;37.53;;
3405;SDS011;10008;48.682;9.016;2023-02-12T05:07:50;61.70;;;36.90;;
3405;SDS011;10008;48.682;9.016;2023-02-12T05:10:15;61.77;;;36.53;;
3405;SDS011;10008;48.682;9.016;2023-02-12T05:12:41;63.00;;;40.10;;
3405;SDS011;10008;48.682;9.016;2023-02-12T05:15:07;58.57;;;38.63;;
3405;SDS011;10008;48.682;9.016;2023-02-12T05:17:33;60.30;;;37.47;;
3405;SDS011;10008;48.682;9.016;2023-02-12T05:19:59;60.93;;;38.13;;
3405;SDS011;10008;48.682;9.016;2023-02-12T05:22:25;64.40;;;40.27;;
3405;SDS011;10008;48.682;9.016;2023-02-12T05:24:51;72.73;;;41.60;;
3405;SDS011;10008;48.682;9.016;2023-02-12T05:27:16;70.57;;;43.00;;
3405;SDS011;10008;48.682;9.016;2023-02-12T05:29:42;78.83;;;46.40;;
3405;SDS011;10008;48.682;9.016;2023-02-12T05:32:08;69.20;;;43.27;;
3405;SDS011;10008;48.682;9.016;2023-02-12T05:34:34;84.83;;;48.73;;
3405;SDS011;10008;48.682;9.016;2023-02-12T05:37:00;87.70;;;49.13;;
3405;SDS011;10008;48.682;9.016;2023-02-12T05:39:26;84.63;;;48.30;;
3405;SDS011;10008;48.682;9.016;2023-02-12T05:41:52;84.90;;;50.70;;
3405;SDS011;10008;48.682;9.016;2023-02-12T05:44:17;98.17;;;53.30;;
3405;SDS011;10008;48.682;9.016;2023-02-12T05:46:43;96.03;;;54.27;;
3405;SDS011;10008;48.682;9.016;2023-02-12T05:49:09;97.97;;;54.43;;
3405;SDS011;10008;48.682;9.016;2023-02-12T05:51:35;92.80;;;52.47;;
3405;SDS011;10008;48.682;9.016;2023-02-12T05:54:02;92.50;;;51.50;;
3405;SDS011;10008;48.682;9.016;2023-02-12T05:56:30;90.90;;;51.83;;
3405;SDS011;10008;48.682;9.016;2023-02-12T05:58:58;96.53;;;52.37;;
3405;SDS011;10008;48.682;9.016;2023-02-12T06:01:34;90.20;;;49.67;;
3405;SDS011;10008;48.682;9.016;2023-02-12T06:04:03;87.97;;;49.33;;
3405;SDS011;10008;48.682;9.016;2023-02-12T06:06:30;89.70;;;50.53;;
3405;SDS011;10008;48.682;9.016;2023-02-12T06:08:56;89.00;;;50.90;;
3405;SDS011;10008;48.682;9.016;2023-02-12T06:11:22;86.10;;;49.57;;
3405;SDS011;10008;48.682;9.016;2023-02-12T06:13:49;88.50;;;49.10;;
3405;SDS011;10008;48.682;9.016;2023-02-12T06:16:16;81.30;;;47.60;;
3405;SDS011;10008;48.682;9.016;2023-02-12T06:18:42;87.73;;;50.30;;
3405;SDS011;10008;48.682;9.016;2023-02-12T06:21:08;105.90;;;58.10;;
3405;SDS011;10008;48.682;9.016;2023-02-12T06:23:33;94.50;;;52.87;;
3405;SDS011;10008;48.682;9.016;2023-02-12T06:25:59;99.00;;;55.53;;
3405;SDS011;10008;48.682;9.016;2023-02-12T06:28:25;98.07;;;55.53;;
3405;SDS011;10008;48.682;9.016;2023-02-12T06:30:50;105.13;;;56.77;;
3405;SDS011;10008;48.682;9.016;2023-02-12T06:33:16;96.53;;;54.30;;
3405;SDS011;10008;48.682;9.016;2023-02-12T06:35:42;98.80;;;54.67;;
3405;SDS011;10008;48.682;9.016;2023-02-12T06:38:08;97.90;;;55.40;;
3405;SDS011;10008;48.682;9.016;2023-02-12T06:40:34;103.10;;;57.40;;
3405;SDS011;10008;48.682;9.016;2023-02-12T06:42:59;95.87;;;54.17;;
3405;SDS011;10008;48.682;9.016;2023-02-12T06:45:25;115.53;;;58.07;;
3405;SDS011;10008;48.682;9.016;2023-02-12T06:47:51;119.03;;;60.30;;
3405;SDS011;10008;48.682;9.016;2023-02-12T06:50:17;122.33;;;61.67;;
3405;SDS011;10008;48.682;9.016;2023-02-12T06:52:43;113.50;;;60.50;;
3405;SDS011;10008;48.682;9.016;2023-02-12T06:55:08;94.90;;;54.50;;
3405;SDS011;10008;48.682;9.016;2023-02-12T06:57:34;109.13;;;58.33;;
3405;SDS011;10008;48.682;9.016;2023-02-12T07:00:00;109.63;;;58.67;;
3405;SDS011;10008;48.682;9.016;2023-02-12T07:02:26;102.03;;;57.23;;
3405;SDS011;10008;48.682;9.016;2023-02-12T07:04:51;113.73;;;58.50;;
3405;SDS011;10008;48.682;9.016;2023-02-12T07:07:17;106.20;;;58.13;;
3405;SDS011;10008;48.682;9.016;2023-02-12T07:09:43;123.63;;;62.67;;
3405;SDS011;10008;48.682;9.016;2023-02-12T07:12:09;115.33;;;60.60;;
3405;SDS011;10008;48.682;9.016;2023-02-12T07:14:34;114.13;;;57.47;;
3405;SDS011;10008;48.682;9.016;2023-02-12T07:17:00;102.73;;;56.73;;
3405;SDS011;10008;48.682;9.016;2023-02-12T07:19:28;106.80;;;56.27;;
3405;SDS011;10008;48.682;9.016;2023-02-12T07:21:54;100.33;;;52.13;;
3405;SDS011;10008;48.682;9.016;2023-02-12T07:24:20;98.77;;;51.30;;
3405;SDS011;10008;48.682;9.016;2023-02-12T07:26:46;83.10;;;48.27;;
3405;SDS011;10008;48.682;9.016;2023-02-12T07:29:12;82.70;;;48.73;;
3405;SDS011;10008;48.682;9.016;2023-02-12T07:31:38;95.33;;;49.13;;
3405;SDS011;10008;48.682;9.016;2023-02-12T07:34:05;91.70;;;49.07;;
3405;SDS011;10008;48.682;9.016;2023-02-12T07:36:31;90.23;;;51.90;;
3405;SDS011;10008;48.682;9.016;2023-02-12T07:38:58;87.93;;;48.07;;
3405;SDS011;10008;48.682;9.016;2023-02-12T07:41:30;86.80;;;51.60;;
3405;SDS011;10008;48.682;9.016;2023-02-12T07:43:59;82.67;;;47.77;;
3405;SDS011;10008;48.682;9.016;2023-02-12T07:46:29;73.83;;;45.63;;
3405;SDS011;10008;48.682;9.016;2023-02-12T07:48:57;74.80;;;45.63;;
3405;SDS011;10008;48.682;9.016;2023-02-12T07:51:24;74.03;;;44.07;;
3405;SDS011;10008;48.682;9.016;2023-02-12T07:53:50;69.90;;;44.13;;
3405;SDS011;10008;48.682;9.016;2023-02-12T07:56:18;71.33;;;43.53;;
3405;SDS011;10008;48.682;9.016;2023-02-12T07:58:46;78.03;;;45.43;;
3405;SDS011;10008;48.682;9.016;2023-02-12T08:01:23;80.37;;;48.40;;
3405;SDS011;10008;48.682;9.016;2023-02-12T08:04:00;71.50;;;45.63;;
3405;SDS011;10008;48.682;9.016;2023-02-12T08:06:32;73.50;;;45.97;;
3405;SDS011;10008;48.682;9.016;2023-02-12T08:09:00;70.00;;;43.83;;
3405;SDS011;10008;48.682;9.016;2023-02-12T08:11:28;64.43;;;43.47;;
3405;SDS011;10008;48.682;9.016;2023-02-12T08:13:55;66.70;;;43.40;;
3405;SDS011;10008;48.682;9.016;2023-02-12T08:16:22;63.97;;;43.27;;
3405;SDS011;10008;48.682;9.016;2023-02-12T08:18:49;69.57;;;41.87;;
3405;SDS011;10008;48.682;9.016;2023-02-12T08:21:17;65.63;;;42.77;;
3405;SDS011;10008;48.682;9.016;2023-02-12T08:23:46;61.47;;;42.43;;
3405;SDS011;10008;48.682;9.016;2023-02-12T08:26:22;67.90;;;42.27;;
3405;SDS011;10008;48.682;9.016;2023-02-12T08:28:54;65.70;;;42.83;;
3405;SDS011;10008;48.682;9.016;2023-02-12T08:31:29;64.93;;;42.80;;
3405;SDS011;10008;48.682;9.016;2023-02-12T08:33:56;63.60;;;42.00;;
3405;SDS011;10008;48.682;9.016;2023-02-12T08:36:23;60.33;;;38.63;;
3405;SDS011;10008;48.682;9.016;2023-02-12T08:38:50;56.00;;;37.50;;
3405;SDS011;10008;48.682;9.016;2023-02-12T08:41:21;55.90;;;37.90;;
3405;SDS011;10008;48.682;9.016;2023-02-12T08:43:50;54.87;;;35.30;;
3405;SDS011;10008;48.682;9.016;2023-02-12T08:46:20;57.30;;;36.37;;
3405;SDS011;10008;48.682;9.016;2023-02-12T08:48:47;58.30;;;36.57;;
3405;SDS011;10008;48.682;9.016;2023-02-12T08:51:14;50.17;;;33.60;;
3405;SDS011;10008;48.682;9.016;2023-02-12T08:53:45;48.50;;;32.67;;
3405;SDS011;10008;48.682;9.016;2023-02-12T08:56:13;50.40;;;34.10;;
3405;SDS011;10008;48.682;9.016;2023-02-12T08:58:40;50.40;;;32.60;;
3405;SDS011;10008;48.682;9.016;2023-02-12T09:01:10;47.40;;;30.30;;
3405;SDS011;10008;48.682;9.016;2023-02-12T09:03:37;44.97;;;31.10;;
3405;SDS011;10008;48.682;9.016;2023-02-12T09:06:04;44.97;;;29.43;;
3405;SDS011;10008;48.682;9.016;2023-02-12T09:08:31;42.40;;;28.60;;
3405;SDS011;10008;48.682;9.016;2023-02-12T09:10:57;40.77;;;29.17;;
3405;SDS011;10008;48.682;9.016;2023-02-12T09:13:23;41.20;;;29.37;;
3405;SDS011;10008;48.682;9.016;2023-02-12T09:15:49;39.53;;;27.40;;
3405;SDS011;10008;48.682;9.016;2023-02-12T09:18:15;40.70;;;28.13;;
3405;SDS011;10008;48.682;9.016;2023-02-12T09:20:42;39.60;;;28.07;;
3405;SDS011;10008;48.682;9.016;2023-02-12T09:23:09;41.50;;;30.07;;
3405;SDS011;10008;48.682;9.016;2023-02-12T09:25:40;43.03;;;31.10;;
3405;SDS011;10008;48.682;9.016;2023-02-12T09:28:07;42.73;;;31.00;;
3405;SDS011;10008;48.682;9.016;2023-02-12T09:30:35;47.80;;;35.20;;
3405;SDS011;10008;48.682;9.016;2023-02-12T09:33:01;44.20;;;33.00;;
3405;SDS011;10008;48.682;9.016;2023-02-12T09:35:27;43.10;;;34.10;;
3405;SDS011;10008;48.682;9.016;2023-02-12T09:37:53;41.80;;;31.53;;
3405;SDS011;10008;48.682;9.016;2023-02-12T09:40:20;47.60;;;32.40;;
3405;SDS011;10008;48.682;9.016;2023-02-12T09:45:48;44.20;;;33.07;;
3405;SDS011;10008;48.682;9.016;2023-02-12T09:51:20;31.20;;;23.47;;
3405;SDS011;10008;48.682;9.016;2023-02-12T09:53:47;18.27;;;15.33;;
3405;SDS011;10008;48.682;9.016;2023-02-12T09:56:18;12.83;;;11.00;;
3405;SDS011;10008;48.682;9.016;2023-02-12T09:58:54;11.97;;;10.27;;
3405;SDS011;10008;48.682;9.016;2023-02-12T10:01:23;11.50;;;10.30;;
3405;SDS011;10008;48.682;9.016;2023-02-12T10:03:51;12.50;;;11.13;;
3405;SDS011;10008;48.682;9.016;2023-02-12T10:06:19;14.83;;;12.07;;
3405;SDS011;10008;48.682;9.016;2023-02-12T10:22:17;13.77;;;11.60;;
3405;SDS011;10008;48.682;9.016;2023-02-12T10:24:48;15.73;;;13.93;;
3405;SDS011;10008;48.682;9.016;2023-02-12T10:27:37;15.03;;;13.43;;
3405;SDS011;10008;48.682;9.016;2023-02-12T10:32:55;15.13;;;13.53;;
3405;SDS011;10008;48.682;9.016;2023-02-12T10:35:27;16.23;;;13.33;;
3405;SDS011;10008;48.682;9.016;2023-02-12T10:37:57;17.60;;;14.10;;
3405;SDS011;10008;48.682;9.016;2023-02-12T10:40:31;17.47;;;14.90;;
3405;SDS011;10008;48.682;9.016;2023-02-12T10:42:59;15.93;;;14.20;;
3405;SDS011;10008;48.682;9.016;2023-02-12T10:45:30;22.63;;;16.03;;
3405;SDS011;10008;48.682;9.016;2023-02-12T10:48:05;23.37;;;17.73;;
3405;SDS011;10008;48.682;9.016;2023-02-12T10:53:32;15.67;;;12.10;;
3405;SDS011;10008;48.682;9.016;2023-02-12T10:56:24;16.70;;;13.60;;
3405;SDS011;10008;48.682;9.016;2023-02-12T11:03:52;17.50;;;14.10;;
3405;SDS011;10008;48.682;9.016;2023-02-12T11:06:20;15.30;;;13.00;;
3405;SDS011;10008;48.682;9.016;2023-02-12T11:08:48;13.60;;;12.20;;
3405;SDS011;10008;48.682;9.016;2023-02-12T11:11:24;15.17;;;12.67;;
3405;SDS011;10008;48.682;9.016;2023-02-12T11:14:17;13.97;;;11.97;;
3405;SDS011;10008;48.682;9.016;2023-02-12T11:16:52;14.57;;;12.80;;
3405;SDS011;10008;48.682;9.016;2023-02-12T11:19:30;18.87;;;14.00;;
3405;SDS011;10008;48.682;9.016;2023-02-12T11:22:11;15.80;;;12.97;;
3405;SDS011;10008;48.682;9.016;2023-02-12T11:24:43;15.37;;;13.37;;
3405;SDS011;10008;48.682;9.016;2023-02-12T11:27:23;14.93;;;12.40;;
3405;SDS011;10008;48.682;9.016;2023-02-12T11:32:34;18.07;;;13.43;;
3405;SDS011;10008;48.682;9.016;2023-02-12T11:35:14;18.03;;;13.90;;
3405;SDS011;10008;48.682;9.016;2023-02-12T11:37:54;15.40;;;13.20;;
3405;SDS011;10008;48.682;9.016;2023-02-12T11:40:26;16.10;;;13.27;;
3405;SDS011;10008;48.682;9.016;2023-02-12T11:42:55;16.23;;;13.53;;
3405;SDS011;10008;48.682;9.016;2023-02-12T11:45:35;15.53;;;12.87;;
3405;SDS011;10008;48.682;9.016;2023-02-12T11:48:18;15.17;;;12.87;;
3405;SDS011;10008;48.682;9.016;2023-02-12T11:50:58;17.10;;;13.27;;
3405;SDS011;10008;48.682;9.016;2023-02-12T11:53:31;15.37;;;12.90;;
3405;SDS011;10008;48.682;9.016;2023-02-12T11:56:04;15.13;;;12.73;;
3405;SDS011;10008;48.682;9.016;2023-02-12T11:58:32;17.67;;;13.60;;
3405;SDS011;10008;48.682;9.016;2023-02-12T12:03:51;16.70;;;14.20;;
3405;SDS011;10008;48.682;9.016;2023-02-12T12:08:44;17.27;;;13.87;;
3405;SDS011;10008;48.682;9.016;2023-02-12T12:14:19;19.53;;;14.67;;
3405;SDS011;10008;48.682;9.016;2023-02-12T12:17:09;19.37;;;14.60;;
3405;SDS011;10008;48.682;9.016;2023-02-12T12:22:28;15.70;;;12.73;;
3405;SDS011;10008;48.682;9.016;2023-02-12T12:28:11;16.23;;;13.50;;
3405;SDS011;10008;48.682;9.016;2023-02-12T12:33:48;20.33;;;14.27;;
3405;SDS011;10008;48.682;9.016;2023-02-12T12:39:11;13.50;;;11.63;;
3405;SDS011;10008;48.682;9.016;2023-02-12T12:42:13;14.90;;;12.90;;
3405;SDS011;10008;48.682;9.016;2023-02-12T12:56:19;15.27;;;12.50;;
3405;SDS011;10008;48.682;9.016;2023-02-12T13:07:18;14.17;;;12.67;;
3405;SDS011;10008;48.682;9.016;2023-02-12T13:13:15;17.73;;;14.17;;
3405;SDS011;10008;48.682;9.016;2023-02-12T13:21:33;14.47;;;12.33;;
3405;SDS011;10008;48.682;9.016;2023-02-12T13:24:24;17.90;;;13.20;;
3405;SDS011;10008;48.682;9.016;2023-02-12T13:29:44;15.40;;;13.80;;
3405;SDS011;10008;48.682;9.016;2023-02-12T13:32:32;15.63;;;14.02;;
3405;SDS011;10008;48.682;9.016;2023-02-12T13:35:05;16.17;;;14.57;;
3405;SDS011;10008;48.682;9.016;2023-02-12T13:37:34;15.27;;;13.77;;
3405;SDS011;10008;48.682;9.016;2023-02-12T13:40:06;14.83;;;13.33;;
3405;SDS011;10008;48.682;9.016;2023-02-12T13:42:40;15.77;;;14.00;;
3405;SDS011;10008;48.682;9.016;2023-02-12T13:45:20;15.00;;;13.60;;
3405;SDS011;10008;48.682;9.016;2023-02-12T13:51:03;15.00;;;13.50;;
3405;SDS011;10008;48.682;9.016;2023-02-12T13:56:59;14.10;;;12.80;;
3405;SDS011;10008;48.682;9.016;2023-02-12T14:04:44;15.37;;;13.97;;
3405;SDS011;10008;48.682;9.016;2023-02-12T14:07:18;16.27;;;14.87;;
3405;SDS011;10008;48.682;9.016;2023-02-12T14:14:49;15.60;;;14.20;;
3405;SDS011;10008;48.682;9.016;2023-02-12T14:26:28;16.83;;;15.40;;
3405;SDS011;10008;48.682;9.016;2023-02-12T14:28:26;18.13;;;16.63;;
3405;SDS011;10008;48.682;9.016;2023-02-12T14:33:42;16.03;;;14.57;;
3405;SDS011;10008;48.682;9.016;2023-02-12T14:41:41;16.40;;;15.00;;
3405;SDS011;10008;48.682;9.016;2023-02-12T14:49:54;14.80;;;13.60;;
3405;SDS011;10008;48.682;9.016;2023-02-12T14:57:30;15.20;;;13.90;;
3405;SDS011;10008;48.682;9.016;2023-02-12T15:02:41;14.97;;;13.70;;
3405;SDS011;10008;48.682;9.016;2023-02-12T15:05:19;15.40;;;14.00;;
3405;SDS011;10008;48.682;9.016;2023-02-12T15:07:59;14.53;;;13.27;;
3405;SDS011;10008;48.682;9.016;2023-02-12T15:10:52;16.20;;;14.70;;
3405;SDS011;10008;48.682;9.016;2023-02-12T15:13:39;15.30;;;14.00;;
3405;SDS011;10008;48.682;9.016;2023-02-12T15:16:16;14.67;;;13.47;;
3405;SDS011;10008;48.682;9.016;2023-02-12T15:21:52;13.30;;;12.07;;
3405;SDS011;10008;48.682;9.016;2023-02-12T15:24:23;12.10;;;11.10;;
3405;SDS011;10008;48.682;9.016;2023-02-12T15:26:51;12.10;;;11.00;;
3405;SDS011;10008;48.682;9.016;2023-02-12T15:29:40;10.73;;;9.63;;
3405;SDS011;10008;48.682;9.016;2023-02-12T15:32:23;11.27;;;10.17;;
3405;SDS011;10008;48.682;9.016;2023-02-12T15:34:51;11.10;;;10.00;;
3405;SDS011;10008;48.682;9.016;2023-02-12T15:37:28;9.73;;;8.63;;
3405;SDS011;10008;48.682;9.016;2023-02-12T15:39:56;10.70;;;8.90;;
3405;SDS011;10008;48.682;9.016;2023-02-12T15:42:31;9.17;;;8.00;;
3405;SDS011;10008;48.682;9.016;2023-02-12T15:47:39;8.90;;;7.83;;
3405;SDS011;10008;48.682;9.016;2023-02-12T15:50:09;8.77;;;7.70;;
3405;SDS011;10008;48.682;9.016;2023-02-12T15:52:38;9.20;;;7.63;;
3405;SDS011;10008;48.682;9.016;2023-02-12T15:55:05;9.50;;;7.00;;
3405;SDS011;10008;48.682;9.016;2023-02-12T15:57:40;10.07;;;7.87;;
3405;SDS011;10008;48.682;9.016;2023-02-12T16:00:09;11.40;;;6.60;;
3405;SDS011;10008;48.682;9.016;2023-02-12T16:02:47;8.50;;;6.47;;
3405;SDS011;10008;48.682;9.016;2023-02-12T16:05:17;7.50;;;6.10;;
3405;SDS011;10008;48.682;9.016;2023-02-12T16:07:43;8.70;;;7.13;;
3405;SDS011;10008;48.682;9.016;2023-02-12T16:10:13;8.97;;;7.10;;
3405;SDS011;10008;48.682;9.016;2023-02-12T16:12:40;8.57;;;6.23;;
3405;SDS011;10008;48.682;9.016;2023-02-12T16:15:06;7.90;;;6.00;;
3405;SDS011;10008;48.682;9.016;2023-02-12T16:17:46;10.70;;;7.80;;
3405;SDS011;10008;48.682;9.016;2023-02-12T16:22:44;8.60;;;6.07;;
3405;SDS011;10008;48.682;9.016;2023-02-12T16:27:55;8.00;;;5.40;;
3405;SDS011;10008;48.682;9.016;2023-02-12T16:30:32;10.73;;;6.37;;
3405;SDS011;10008;48.682;9.016;2023-02-12T16:33:03;8.87;;;6.33;;
3405;SDS011;10008;48.682;9.016;2023-02-12T16:35:58;9.47;;;6.53;;
3405;SDS011;10008;48.682;9.016;2023-02-12T16:43:39;10.33;;;5.80;;
3405;SDS011;10008;48.682;9.016;2023-02-12T16:46:08;9.03;;;6.00;;
3405;SDS011;10008;48.682;9.016;2023-02-12T16:48:39;8.77;;;6.37;;
3405;SDS011;10008;48.682;9.016;2023-02-12T16:51:18;9.43;;;6.50;;
3405;SDS011;10008;48.682;9.016;2023-02-12T16:53:49;9.00;;;6.50;;
3405;SDS011;10008;48.682;9.016;2023-02-12T16:56:18;9.60;;;6.07;;
3405;SDS011;10008;48.682;9.016;2023-02-12T17:01:01;13.10;;;8.83;;
3405;SDS011;10008;48.682;9.016;2023-02-12T17:03:28;15.40;;;9.83;;
3405;SDS011;10008;48.682;9.016;2023-02-12T17:05:54;13.10;;;9.60;;
3405;SDS011;10008;48.682;9.016;2023-02-12T17:08:21;11.80;;;8.10;;
3405;SDS011;10008;48.682;9.016;2023-02-12T17:10:47;12.13;;;7.40;;
3405;SDS011;10008;48.682;9.016;2023-02-12T17:13:14;11.97;;;8.23;;
3405;SDS011;10008;48.682;9.016;2023-02-12T17:15:54;11.00;;;7.53;;
3405;SDS011;10008;48.682;9.016;2023-02-12T17:18:22;10.10;;;7.43;;
3405;SDS011;10008;48.682;9.016;2023-02-12T17:20:55;12.03;;;8.13;;
3405;SDS011;10008;48.682;9.016;2023-02-12T17:23:24;13.70;;;7.80;;
3405;SDS011;10008;48.682;9.016;2023-02-12T17:25:50;11.97;;;8.60;;
3405;SDS011;10008;48.682;9.016;2023-02-12T17:28:16;13.00;;;8.30;;
3405;SDS011;10008;48.682;9.016;2023-02-12T17:30:42;14.10;;;8.77;;
3405;SDS011;10008;48.682;9.016;2023-02-12T17:33:08;14.57;;;8.83;;
3405;SDS011;10008;48.682;9.016;2023-02-12T17:35:36;14.50;;;9.20;;
3405;SDS011;10008;48.682;9.016;2023-02-12T17:38:02;14.83;;;8.57;;
3405;SDS011;10008;48.682;9.016;2023-02-12T17:40:28;14.73;;;9.50;;
3405;SDS011;10008;48.682;9.016;2023-02-12T17:42:54;17.20;;;9.57;;
3405;SDS011;10008;48.682;9.016;2023-02-12T17:45:19;15.40;;;9.40;;
3405;SDS011;10008;48.682;9.016;2023-02-12T17:47:45;16.47;;;9.60;;
3405;SDS011;10008;48.682;9.016;2023-02-12T17:50:12;15.87;;;10.47;;
3405;SDS011;10008;48.682;9.016;2023-02-12T17:52:39;17.43;;;11.10;;
3405;SDS011;10008;48.682;9.016;2023-02-12T17:55:05;16.57;;;10.80;;
3405;SDS011;10008;48.682;9.016;2023-02-12T17:57:31;16.40;;;9.93;;
3405;SDS011;10008;48.682;9.016;2023-02-12T17:59:57;33.90;;;19.73;;
3405;SDS011;10008;48.682;9.016;2023-02-12T18:02:24;26.73;;;18.97;;
3405;SDS011;10008;48.682;9.016;2023-02-12T18:04:50;28.30;;;19.73;;
3405;SDS011;10008;48.682;9.016;2023-02-12T18:07:15;23.90;;;17.23;;